createdAt,value
2022-11-08T00:02:34.464Z,5.60
2022-11-08T00:05:45.195Z,5.40
2022-11-08T00:08:56.053Z,5.30
2022-11-08T00:12:06.716Z,5.40
2022-11-08T00:14:59.455Z,5.40
2022-11-08T00:17:51.595Z,5.50
2022-11-08T00:20:43.708Z,5.50
2022-11-08T00:23:35.859Z,5.50
2022-11-08T00:26:28.498Z,5.50
2022-11-08T00:29:20.581Z,5.50
2022-11-08T00:32:15.514Z,5.60
2022-11-08T00:35:08.100Z,5.70
2022-11-08T00:38:00.229Z,5.90
2022-11-08T00:40:52.339Z,5.90
2022-11-08T00:43:44.485Z,6.00
2022-11-08T00:46:37.564Z,6.00
2022-11-08T00:49:29.747Z,5.90
2022-11-08T00:52:21.939Z,5.90
2022-11-08T00:55:14.093Z,5.60
2022-11-08T00:58:06.194Z,5.40
2022-11-08T01:00:59.124Z,5.30
2022-11-08T01:03:51.639Z,5.20
2022-11-08T01:06:44.201Z,5.30
2022-11-08T01:09:36.335Z,5.40
2022-11-08T01:12:28.463Z,5.50
2022-11-08T01:15:20.611Z,5.50
2022-11-08T01:18:15.173Z,5.40
2022-11-08T01:21:08.032Z,5.40
2022-11-08T01:24:00.253Z,5.20
2022-11-08T01:26:52.463Z,5.10
2022-11-08T01:29:44.616Z,5.10
2022-11-08T01:32:36.714Z,5.00
2022-11-08T01:35:31.654Z,5.20
2022-11-08T01:38:23.771Z,5.30
2022-11-08T01:41:17.952Z,5.20
2022-11-08T01:44:16.923Z,4.80
2022-11-08T01:47:09.064Z,4.50
2022-11-08T01:50:11.457Z,4.50
2022-11-08T01:53:03.610Z,4.60
2022-11-08T01:55:56.407Z,4.80
2022-11-08T01:58:51.953Z,4.80
2022-11-08T02:01:45.009Z,4.70
2022-11-08T02:04:39.345Z,4.50
2022-11-08T02:07:33.871Z,4.40
2022-11-08T02:10:34.763Z,4.40
2022-11-08T02:13:30.114Z,4.50
2022-11-08T02:16:22.240Z,4.60
2022-11-08T02:19:25.300Z,4.60
2022-11-08T02:22:26.273Z,4.40
2022-11-08T02:25:18.960Z,4.40
2022-11-08T02:28:11.071Z,4.50
2022-11-08T02:31:03.245Z,4.40
2022-11-08T02:33:55.336Z,4.30
2022-11-08T02:36:49.516Z,4.30
2022-11-08T02:39:43.040Z,4.30
2022-11-08T02:42:38.714Z,4.30
2022-11-08T02:45:30.834Z,4.20
2022-11-08T02:48:22.941Z,4.10
2022-11-08T02:51:15.138Z,3.90
2022-11-08T02:54:07.551Z,3.90
2022-11-08T02:56:59.756Z,3.90
2022-11-08T02:59:51.934Z,3.90
2022-11-08T03:02:44.132Z,4.00
2022-11-08T03:05:36.286Z,4.10
2022-11-08T03:08:28.493Z,4.00
2022-11-08T03:11:20.626Z,4.10
2022-11-08T03:14:12.749Z,4.10
2022-11-08T03:17:04.932Z,4.20
2022-11-08T03:19:57.027Z,4.30
2022-11-08T03:22:49.145Z,4.30
2022-11-08T03:25:41.284Z,4.30
2022-11-08T03:28:33.464Z,4.30
2022-11-08T03:31:25.639Z,4.30
2022-11-08T03:34:17.745Z,4.20
2022-11-08T03:37:10.752Z,4.20
2022-11-08T03:40:02.942Z,4.10
2022-11-08T03:42:57.430Z,4.10
2022-11-08T03:45:49.615Z,3.90
2022-11-08T03:48:41.812Z,3.80
2022-11-08T03:51:34.032Z,3.70
2022-11-08T03:54:26.166Z,3.60
2022-11-08T03:57:18.269Z,3.60
2022-11-08T04:00:13.076Z,3.50
2022-11-08T04:03:05.221Z,3.60
2022-11-08T04:06:00.158Z,3.60
2022-11-08T04:08:52.266Z,3.60
2022-11-08T04:12:03.129Z,3.70
2022-11-08T04:15:13.526Z,3.60
2022-11-08T04:18:24.160Z,3.60
2022-11-08T04:21:21.899Z,3.60
2022-11-08T04:24:14.593Z,3.60
2022-11-08T04:27:08.272Z,3.50
2022-11-08T04:30:00.383Z,3.40
2022-11-08T04:32:52.524Z,3.50
2022-11-08T04:35:44.651Z,3.60
2022-11-08T04:38:37.302Z,3.50
2022-11-08T04:41:29.661Z,3.60
2022-11-08T04:44:21.815Z,3.60
2022-11-08T04:47:13.954Z,3.60
2022-11-08T04:50:06.341Z,3.50
2022-11-08T04:52:58.508Z,3.50
2022-11-08T04:55:50.675Z,3.50
2022-11-08T04:58:44.597Z,3.50
2022-11-08T05:01:36.945Z,3.50
2022-11-08T05:04:29.153Z,3.40
2022-11-08T05:07:21.340Z,3.40
2022-11-08T05:10:13.605Z,3.40
2022-11-08T05:13:05.699Z,3.40
2022-11-08T05:16:16.355Z,3.40
2022-11-08T05:19:13.032Z,3.40
2022-11-08T05:22:23.998Z,3.40
2022-11-08T05:25:16.042Z,3.40
2022-11-08T05:28:08.175Z,3.40
2022-11-08T05:31:00.501Z,3.40
2022-11-08T05:33:53.036Z,3.40
2022-11-08T05:36:45.181Z,3.30
2022-11-08T05:39:37.297Z,3.30
2022-11-08T05:42:29.431Z,3.40
2022-11-08T05:45:21.752Z,3.40
2022-11-08T05:48:14.106Z,3.30
2022-11-08T05:51:06.392Z,3.40
2022-11-08T05:53:58.751Z,3.50
2022-11-08T05:56:50.900Z,3.50
2022-11-08T05:59:43.008Z,3.50
2022-11-08T06:02:35.270Z,3.50
2022-11-08T06:05:27.497Z,3.50
2022-11-08T06:08:19.666Z,3.50
2022-11-08T06:11:16.909Z,3.50
2022-11-08T06:14:09.048Z,3.50
2022-11-08T06:17:01.211Z,3.50
2022-11-08T06:19:53.302Z,3.50
2022-11-08T06:22:45.438Z,3.50
2022-11-08T06:25:38.028Z,3.50
2022-11-08T06:28:30.518Z,3.40
2022-11-08T06:31:22.994Z,3.40
2022-11-08T06:34:15.204Z,3.50
2022-11-08T06:37:07.622Z,3.60
2022-11-08T06:39:59.735Z,3.60
2022-11-08T06:42:53.405Z,3.60
2022-11-08T06:45:45.531Z,3.50
2022-11-08T06:48:37.625Z,3.50
2022-11-08T06:51:29.968Z,3.60
2022-11-08T06:54:25.767Z,3.80
2022-11-08T06:57:18.966Z,3.80
2022-11-08T07:00:11.885Z,3.90
2022-11-08T07:03:04.525Z,4.00
2022-11-08T07:05:56.861Z,4.00
2022-11-08T07:08:49.100Z,4.00
2022-11-08T07:11:41.343Z,4.00
2022-11-08T07:14:34.189Z,4.10
2022-11-08T07:17:26.381Z,4.10
2022-11-08T07:20:18.499Z,4.10
2022-11-08T07:23:12.010Z,4.10
2022-11-08T07:26:08.799Z,4.20
2022-11-08T07:29:00.914Z,4.30
2022-11-08T07:31:53.114Z,4.20
2022-11-08T07:34:45.262Z,4.10
2022-11-08T07:37:37.374Z,4.20
2022-11-08T07:40:29.537Z,4.30
2022-11-08T07:43:21.650Z,4.30
2022-11-08T07:46:13.791Z,4.20
2022-11-08T07:49:05.902Z,4.30
2022-11-08T07:51:58.032Z,4.30
2022-11-08T07:54:50.172Z,4.60
2022-11-08T07:57:42.300Z,4.60
2022-11-08T08:00:39.219Z,4.70
2022-11-08T08:03:31.764Z,4.70
2022-11-08T08:06:24.421Z,4.70
2022-11-08T08:09:16.588Z,4.70
2022-11-08T08:12:08.733Z,4.80
2022-11-08T08:15:00.862Z,4.70
2022-11-08T08:17:53.029Z,4.80
2022-11-08T08:20:46.985Z,4.80
2022-11-08T08:23:39.094Z,4.80
2022-11-08T08:26:31.491Z,4.80
2022-11-08T08:29:23.617Z,4.90
2022-11-08T08:32:15.833Z,4.80
2022-11-08T08:35:08.377Z,5.00
2022-11-08T08:38:01.673Z,5.00
2022-11-08T08:40:53.872Z,5.10
2022-11-08T08:43:46.051Z,5.10
2022-11-08T08:46:38.181Z,5.10
2022-11-08T08:49:30.315Z,5.20
2022-11-08T08:52:22.429Z,5.40
2022-11-08T08:55:14.802Z,5.40
2022-11-08T08:58:06.959Z,5.30
2022-11-08T09:04:15.122Z,5.60
2022-11-08T09:07:07.467Z,5.50
2022-11-08T09:09:59.676Z,5.70
2022-11-08T09:12:51.844Z,5.80
2022-11-08T09:15:43.963Z,5.70
2022-11-08T09:18:36.307Z,5.70
2022-11-08T09:21:28.604Z,5.90
2022-11-08T09:24:20.825Z,6.10
2022-11-08T09:27:13.014Z,5.90
2022-11-08T09:30:06.108Z,5.90
2022-11-08T09:33:01.403Z,6.10
2022-11-08T09:35:54.450Z,6.00
2022-11-08T09:38:46.570Z,5.90
2022-11-08T09:41:55.856Z,6.00
2022-11-08T09:45:06.854Z,6.10
2022-11-08T09:48:10.527Z,6.20
2022-11-08T09:51:11.352Z,6.30
2022-11-08T09:54:06.634Z,6.40
2022-11-08T09:56:58.802Z,6.50
2022-11-08T10:00:13.312Z,6.50
2022-11-08T10:03:05.644Z,6.70
2022-11-08T10:06:18.566Z,6.60
2022-11-08T10:09:36.318Z,6.50
2022-11-08T10:12:40.561Z,6.50
2022-11-08T10:15:46.569Z,6.60
2022-11-08T10:19:10.436Z,6.70
2022-11-08T10:22:32.519Z,6.70
2022-11-08T10:25:30.920Z,6.60
2022-11-08T10:28:28.323Z,6.60
2022-11-08T10:31:21.108Z,6.70
2022-11-08T10:34:22.583Z,6.60
2022-11-08T10:37:16.605Z,6.70
2022-11-08T10:40:36.100Z,6.70
2022-11-08T10:43:40.003Z,6.90
2022-11-08T10:46:43.552Z,6.90
2022-11-08T10:49:43.712Z,6.90
2022-11-08T10:52:41.027Z,7.00
2022-11-08T10:55:38.520Z,6.90
2022-11-08T10:58:40.109Z,6.90
2022-11-08T11:01:32.315Z,7.00
2022-11-08T11:04:33.417Z,7.00
2022-11-08T11:07:36.696Z,7.00
2022-11-08T11:10:35.163Z,7.00
2022-11-08T11:16:25.118Z,7.10
2022-11-08T11:19:17.317Z,7.10
2022-11-08T11:22:09.829Z,7.30
2022-11-08T11:25:16.482Z,7.40
2022-11-08T11:28:14.260Z,7.40
2022-11-08T11:31:17.065Z,7.40
2022-11-08T11:34:18.078Z,7.40
2022-11-08T11:37:10.693Z,7.30
2022-11-08T11:40:27.045Z,7.20
2022-11-08T11:43:29.728Z,7.30
2022-11-08T11:47:10.152Z,7.30
2022-11-08T11:50:18.999Z,7.40
2022-11-08T11:53:24.696Z,7.40
2022-11-08T11:56:16.790Z,7.30
2022-11-08T11:59:50.884Z,7.50
2022-11-08T12:02:52.089Z,7.50
2022-11-08T12:06:17.803Z,7.50
2022-11-08T12:09:15.732Z,7.50
2022-11-08T12:12:32.343Z,7.50
2022-11-08T12:15:51.016Z,7.50
2022-11-08T12:18:49.547Z,7.50
2022-11-08T12:21:50.422Z,7.50
2022-11-08T12:25:12.938Z,7.60
2022-11-08T12:28:17.467Z,7.60
2022-11-08T12:31:26.622Z,7.70
2022-11-08T12:34:37.798Z,7.70
2022-11-08T12:37:45.162Z,7.80
2022-11-08T12:41:07.247Z,7.90
2022-11-08T12:44:16.953Z,7.90
2022-11-08T12:47:35.072Z,8.00
2022-11-08T12:50:45.406Z,8.10
2022-11-08T12:53:48.861Z,8.10
2022-11-08T12:56:45.807Z,8.20
2022-11-08T12:59:45.771Z,8.40
2022-11-08T13:02:40.255Z,8.50
2022-11-08T13:05:39.320Z,8.80
2022-11-08T13:08:44.657Z,8.90
2022-11-08T13:11:57.985Z,9.00
2022-11-08T13:14:50.310Z,9.10
2022-11-08T13:18:05.040Z,9.20
2022-11-08T13:20:57.125Z,9.40
2022-11-08T13:23:49.251Z,9.40
2022-11-08T13:26:43.179Z,9.50
2022-11-08T13:29:35.412Z,9.70
2022-11-08T13:32:54.214Z,9.70
2022-11-08T13:35:46.672Z,9.90
2022-11-08T13:39:28.907Z,9.80
2022-11-08T13:42:21.013Z,9.90
2022-11-08T13:45:27.455Z,9.90
2022-11-08T13:48:26.014Z,9.90
2022-11-08T13:51:28.539Z,10.10
2022-11-08T13:54:23.216Z,10.20
2022-11-08T13:57:19.622Z,10.30
2022-11-08T14:00:33.352Z,10.30
2022-11-08T14:03:34.248Z,10.40
2022-11-08T14:06:34.915Z,10.40
2022-11-08T14:09:39.070Z,10.30
2022-11-08T14:12:37.238Z,10.40
2022-11-08T14:15:46.640Z,10.40
2022-11-08T14:18:39.435Z,10.30
2022-11-08T14:21:31.728Z,10.30
2022-11-08T14:24:29.994Z,10.30
2022-11-08T14:27:37.278Z,10.40
2022-11-08T14:30:29.693Z,10.40
2022-11-08T14:33:24.774Z,10.20
2022-11-08T14:36:19.684Z,10.20
2022-11-08T14:39:18.219Z,10.30
2022-11-08T14:42:20.887Z,10.40
2022-11-08T14:45:15.029Z,10.20
2022-11-08T14:48:10.210Z,10.00
2022-11-08T14:51:05.402Z,9.90
2022-11-08T14:53:57.576Z,9.80
2022-11-08T14:56:50.423Z,9.80
2022-11-08T14:59:42.648Z,9.80
2022-11-08T15:02:34.970Z,9.80
2022-11-08T15:05:41.260Z,9.60
2022-11-08T15:08:37.217Z,9.50
2022-11-08T15:11:32.573Z,9.50
2022-11-08T15:14:27.868Z,9.40
2022-11-08T15:17:38.325Z,9.30
2022-11-08T15:20:30.710Z,9.20
2022-11-08T15:23:25.360Z,9.20
2022-11-08T15:26:20.230Z,9.10
2022-11-08T15:29:19.870Z,9.10
2022-11-08T15:32:17.888Z,9.10
2022-11-08T15:35:32.278Z,9.10
2022-11-08T15:38:33.389Z,9.00
2022-11-08T15:41:28.584Z,9.00
2022-11-08T15:44:25.866Z,9.00
2022-11-08T15:47:43.659Z,8.90
2022-11-08T15:50:36.547Z,8.90
2022-11-08T15:53:29.328Z,8.90
2022-11-08T15:56:21.851Z,8.90
2022-11-08T15:59:21.561Z,8.90
2022-11-08T16:02:14.839Z,8.90
2022-11-08T16:05:19.000Z,8.90
2022-11-08T16:08:14.360Z,8.90
2022-11-08T16:11:22.348Z,8.90
2022-11-08T16:14:23.372Z,8.90
2022-11-08T16:17:15.515Z,8.90
2022-11-08T16:20:29.987Z,8.80
2022-11-08T16:23:22.149Z,8.70
2022-11-08T16:26:20.616Z,8.70
2022-11-08T16:29:21.476Z,8.70
2022-11-08T16:32:13.660Z,8.60
2022-11-08T16:35:06.248Z,8.50
2022-11-08T16:37:58.348Z,8.50
2022-11-08T16:40:50.475Z,8.50
2022-11-08T16:43:42.613Z,8.40
2022-11-08T16:46:34.844Z,8.50
2022-11-08T16:49:27.430Z,8.40
2022-11-08T16:52:19.562Z,8.30
2022-11-08T16:55:17.366Z,8.40
2022-11-08T16:58:09.815Z,8.30
2022-11-08T17:01:10.504Z,8.30
2022-11-08T17:04:02.901Z,8.30
2022-11-08T17:06:55.109Z,8.20
2022-11-08T17:09:47.415Z,8.20
2022-11-08T17:12:39.575Z,8.20
2022-11-08T17:15:32.057Z,8.20
2022-11-08T17:18:24.189Z,8.10
2022-11-08T17:21:43.252Z,8.20
2022-11-08T17:24:29.661Z,8.10
2022-11-08T17:27:21.806Z,8.10
2022-11-08T17:30:15.248Z,8.10
2022-11-08T17:33:07.395Z,8.10
2022-11-08T17:36:04.733Z,8.00
2022-11-08T17:38:56.879Z,8.00
2022-11-08T17:41:49.007Z,8.10
2022-11-08T17:44:41.177Z,8.00
2022-11-08T17:47:33.340Z,8.00
2022-11-08T17:50:25.461Z,8.00
2022-11-08T17:53:17.928Z,8.00
2022-11-08T17:56:12.027Z,8.10
2022-11-08T17:59:04.213Z,8.20
2022-11-08T18:01:56.362Z,8.20
2022-11-08T18:04:48.581Z,8.10
2022-11-08T18:07:40.776Z,8.20
2022-11-08T18:10:32.971Z,8.20
2022-11-08T18:13:26.989Z,8.20
2022-11-08T18:16:26.078Z,8.10
2022-11-08T18:19:19.479Z,8.20
2022-11-08T18:22:11.627Z,8.20
2022-11-08T18:25:04.166Z,8.20
2022-11-08T18:27:57.620Z,8.10
2022-11-08T18:30:50.385Z,8.10
2022-11-08T18:33:43.335Z,8.10
2022-11-08T18:36:35.497Z,8.20
2022-11-08T18:39:27.829Z,8.20
2022-11-08T18:42:19.944Z,8.20
2022-11-08T18:45:12.202Z,8.30
2022-11-08T18:48:04.458Z,8.30
2022-11-08T18:50:56.604Z,8.30
2022-11-08T18:53:48.850Z,8.30
2022-11-08T18:56:41.021Z,8.40
2022-11-08T18:59:33.530Z,8.40
2022-11-08T19:02:25.699Z,8.30
2022-11-08T19:05:18.004Z,8.30
2022-11-08T19:08:10.150Z,8.30
2022-11-08T19:11:06.321Z,8.30
2022-11-08T19:13:59.688Z,8.30
2022-11-08T19:16:56.001Z,8.30
2022-11-08T19:19:48.197Z,8.30
2022-11-08T19:22:40.353Z,8.30
2022-11-08T19:25:33.793Z,8.30
2022-11-08T19:28:32.476Z,8.30
2022-11-08T19:31:26.123Z,8.30
2022-11-08T19:34:18.297Z,8.30
2022-11-08T19:37:10.478Z,8.40
2022-11-08T19:40:02.752Z,8.30
2022-11-08T19:42:54.881Z,8.30
2022-11-08T19:45:53.613Z,8.30
2022-11-08T19:48:47.440Z,8.40
2022-11-08T19:51:39.911Z,8.40
2022-11-08T19:54:32.055Z,8.40
2022-11-08T19:57:24.197Z,8.40
2022-11-08T20:00:18.019Z,8.50
2022-11-08T20:03:10.216Z,8.60
2022-11-08T20:06:02.579Z,8.60
2022-11-08T20:08:55.237Z,8.60
2022-11-08T20:11:47.392Z,8.50
2022-11-08T20:14:39.516Z,8.50
2022-11-08T20:17:34.165Z,8.50
2022-11-08T20:20:26.344Z,8.60
2022-11-08T20:23:18.493Z,8.60
2022-11-08T20:26:20.421Z,8.50
2022-11-08T20:29:13.329Z,8.50
2022-11-08T20:32:05.656Z,8.50
2022-11-08T20:34:58.708Z,8.60
2022-11-08T20:37:51.237Z,8.50
2022-11-08T20:40:44.156Z,8.50
2022-11-08T20:43:40.442Z,8.50
2022-11-08T20:46:33.299Z,8.40
2022-11-08T20:49:25.681Z,8.40
2022-11-08T20:52:22.262Z,8.60
2022-11-08T20:55:14.457Z,8.50
2022-11-08T20:58:06.630Z,8.40
2022-11-08T21:00:59.923Z,8.40
2022-11-08T21:03:52.627Z,8.40
2022-11-08T21:06:45.091Z,8.30
2022-11-08T21:09:49.339Z,8.40
2022-11-08T21:12:42.271Z,8.30
2022-11-08T21:15:34.423Z,8.40
2022-11-08T21:18:27.602Z,8.40
2022-11-08T21:21:22.360Z,8.30
2022-11-08T21:24:14.529Z,8.30
2022-11-08T21:27:06.675Z,8.30
2022-11-08T21:29:58.894Z,8.30
2022-11-08T21:32:51.253Z,8.30
2022-11-08T21:35:43.408Z,8.30
2022-11-08T21:38:39.754Z,8.30
2022-11-08T21:41:31.884Z,8.30
2022-11-08T21:44:24.090Z,8.30
2022-11-08T21:47:16.253Z,8.30
2022-11-08T21:50:08.805Z,8.30
2022-11-08T21:53:01.670Z,8.40
2022-11-08T21:55:58.049Z,8.40
2022-11-08T21:58:50.555Z,8.40
2022-11-08T22:01:42.736Z,8.40
2022-11-08T22:04:34.902Z,8.30
2022-11-08T22:07:27.115Z,8.30
2022-11-08T22:10:19.313Z,8.30
2022-11-08T22:13:11.975Z,8.40
2022-11-08T22:16:04.314Z,8.40
2022-11-08T22:19:05.690Z,8.50
2022-11-08T22:21:58.278Z,8.50
2022-11-08T22:24:50.500Z,8.50
2022-11-08T22:27:42.629Z,8.50
2022-11-08T22:30:34.799Z,8.40
2022-11-08T22:33:26.928Z,8.40
2022-11-08T22:36:21.852Z,8.40
2022-11-08T22:39:22.442Z,8.40
2022-11-08T22:42:14.634Z,8.30
2022-11-08T22:45:07.175Z,8.30
2022-11-08T22:47:59.351Z,8.40
2022-11-08T22:50:51.524Z,8.40
2022-11-08T22:53:43.734Z,8.40
2022-11-08T22:56:36.109Z,8.40
2022-11-08T22:59:28.260Z,8.40
2022-11-08T23:02:20.431Z,8.40
2022-11-08T23:05:12.577Z,8.40
2022-11-08T23:08:04.926Z,8.40
2022-11-08T23:11:18.692Z,8.40
2022-11-08T23:14:35.392Z,8.40
2022-11-08T23:17:29.161Z,8.40
2022-11-08T23:20:39.968Z,8.40
2022-11-08T23:23:50.459Z,8.40
2022-11-08T23:27:01.012Z,8.40
2022-11-08T23:30:11.473Z,8.40
2022-11-08T23:33:05.734Z,8.40
2022-11-08T23:36:14.290Z,8.40
2022-11-08T23:39:06.557Z,8.30
2022-11-08T23:42:17.439Z,8.40
2022-11-08T23:45:09.700Z,8.30
2022-11-08T23:48:02.003Z,8.30
2022-11-08T23:50:55.717Z,8.30
2022-11-08T23:53:47.827Z,8.30
2022-11-08T23:56:39.994Z,8.30
2022-11-08T23:59:32.138Z,8.30
